sensor_id;sensor_type;location;lat;lon;timestamp;pressure;altitude;pressure_sealevel;temperature;humidity
11515;BME280;5814;41.936;25.556;2022-12-05T00:01:35;100348.47;;;7.35;100.00
11515;BME280;5814;41.936;25.556;2022-12-05T00:04:02;100351.53;;;7.40;100.00
11515;BME280;5814;41.936;25.556;2022-12-05T00:06:28;100348.78;;;7.17;100.00
11515;BME280;5814;41.936;25.556;2022-12-05T00:08:56;100354.88;;;7.24;100.00
11515;BME280;5814;41.936;25.556;2022-12-05T00:11:24;100353.63;;;7.34;100.00
11515;BME280;5814;41.936;25.556;2022-12-05T00:13:50;100361.91;;;7.41;100.00
11515;BME280;5814;41.936;25.556;2022-12-05T00:16:17;100359.85;;;7.63;100.00
11515;BME280;5814;41.936;25.556;2022-12-05T00:18:44;100354.09;;;7.39;100.00
11515;BME280;5814;41.936;25.556;2022-12-05T00:21:12;100358.82;;;7.31;100.00
11515;BME280;5814;41.936;25.556;2022-12-05T00:23:38;100364.52;;;7.43;100.00
11515;BME280;5814;41.936;25.556;2022-12-05T00:26:05;100352.00;;;7.47;100.00
11515;BME280;5814;41.936;25.556;2022-12-05T00:28:32;100353.81;;;7.64;100.00
11515;BME280;5814;41.936;25.556;2022-12-05T00:31:05;100363.63;;;7.38;100.00
11515;BME280;5814;41.936;25.556;2022-12-05T00:33:32;100364.91;;;7.36;100.00
11515;BME280;5814;41.936;25.556;2022-12-05T00:36:05;100361.93;;;7.45;100.00
11515;BME280;5814;41.936;25.556;2022-12-05T00:38:31;100347.26;;;7.56;100.00
11515;BME280;5814;41.936;25.556;2022-12-05T00:41:03;100359.47;;;7.75;100.00
11515;BME280;5814;41.936;25.556;2022-12-05T00:43:30;100355.44;;;7.49;100.00
11515;BME280;5814;41.936;25.556;2022-12-05T00:46:01;100360.62;;;7.43;100.00
11515;BME280;5814;41.936;25.556;2022-12-05T00:48:27;100353.27;;;7.43;100.00
11515;BME280;5814;41.936;25.556;2022-12-05T00:51:02;100348.55;;;7.50;100.00
11515;BME280;5814;41.936;25.556;2022-12-05T00:53:29;100360.65;;;7.52;100.00
11515;BME280;5814;41.936;25.556;2022-12-05T00:56:00;100352.73;;;7.26;100.00
11515;BME280;5814;41.936;25.556;2022-12-05T00:58:23;100344.46;;;7.16;100.00
11515;BME280;5814;41.936;25.556;2022-12-05T01:00:50;100347.14;;;7.31;100.00
11515;BME280;5814;41.936;25.556;2022-12-05T01:03:17;100345.83;;;7.32;100.00
11515;BME280;5814;41.936;25.556;2022-12-05T01:05:45;100341.97;;;7.36;100.00
11515;BME280;5814;41.936;25.556;2022-12-05T01:08:12;100332.43;;;7.31;100.00
11515;BME280;5814;41.936;25.556;2022-12-05T01:10:39;100345.31;;;7.13;100.00
11515;BME280;5814;41.936;25.556;2022-12-05T01:13:06;100338.42;;;7.22;100.00
11515;BME280;5814;41.936;25.556;2022-12-05T01:15:35;100349.73;;;7.32;100.00
11515;BME280;5814;41.936;25.556;2022-12-05T01:18:00;100345.47;;;7.44;100.00
11515;BME280;5814;41.936;25.556;2022-12-05T01:20:28;100341.61;;;7.48;100.00
11515;BME280;5814;41.936;25.556;2022-12-05T01:22:55;100341.95;;;7.34;100.00
11515;BME280;5814;41.936;25.556;2022-12-05T01:25:22;100334.20;;;7.38;100.00
11515;BME280;5814;41.936;25.556;2022-12-05T01:27:49;100328.17;;;7.45;100.00
11515;BME280;5814;41.936;25.556;2022-12-05T01:30:16;100329.55;;;7.63;100.00
11515;BME280;5814;41.936;25.556;2022-12-05T01:32:43;100340.81;;;7.64;100.00
11515;BME280;5814;41.936;25.556;2022-12-05T01:35:11;100332.45;;;7.37;100.00
11515;BME280;5814;41.936;25.556;2022-12-05T01:37:38;100335.89;;;7.32;100.00
11515;BME280;5814;41.936;25.556;2022-12-05T01:40:06;100332.94;;;7.42;100.00
11515;BME280;5814;41.936;25.556;2022-12-05T01:42:33;100334.66;;;7.49;100.00
11515;BME280;5814;41.936;25.556;2022-12-05T01:45:04;100329.05;;;7.45;100.00
11515;BME280;5814;41.936;25.556;2022-12-05T01:47:28;100332.77;;;7.14;100.00
11515;BME280;5814;41.936;25.556;2022-12-05T01:49:55;100327.16;;;7.17;100.00
11515;BME280;5814;41.936;25.556;2022-12-05T01:52:22;100332.02;;;7.35;100.00
11515;BME280;5814;41.936;25.556;2022-12-05T01:54:49;100326.02;;;7.48;100.00
11515;BME280;5814;41.936;25.556;2022-12-05T01:57:16;100320.83;;;7.45;100.00
11515;BME280;5814;41.936;25.556;2022-12-05T01:59:44;100324.59;;;7.25;100.00
11515;BME280;5814;41.936;25.556;2022-12-05T02:02:10;100297.67;;;7.08;100.00
11515;BME280;5814;41.936;25.556;2022-12-05T02:04:41;100314.72;;;7.36;100.00
11515;BME280;5814;41.936;25.556;2022-12-05T02:07:05;100317.34;;;7.44;100.00
11515;BME280;5814;41.936;25.556;2022-12-05T02:09:32;100311.33;;;7.53;100.00
11515;BME280;5814;41.936;25.556;2022-12-05T02:12:00;100305.27;;;7.56;100.00
11515;BME280;5814;41.936;25.556;2022-12-05T02:15:00;100299.61;;;7.46;100.00
11515;BME280;5814;41.936;25.556;2022-12-05T02:20:24;100293.16;;;7.59;100.00
11515;BME280;5814;41.936;25.556;2022-12-05T02:23:05;100287.97;;;7.55;100.00
11515;BME280;5814;41.936;25.556;2022-12-05T02:25:41;100285.63;;;7.17;100.00
11515;BME280;5814;41.936;25.556;2022-12-05T02:28:30;100278.28;;;7.16;100.00
11515;BME280;5814;41.936;25.556;2022-12-05T02:30:54;100302.17;;;7.39;100.00
11515;BME280;5814;41.936;25.556;2022-12-05T02:33:22;100296.19;;;7.52;100.00
11515;BME280;5814;41.936;25.556;2022-12-05T02:35:53;100287.11;;;7.57;100.00
11515;BME280;5814;41.936;25.556;2022-12-05T02:38:43;100290.03;;;7.34;100.00
11515;BME280;5814;41.936;25.556;2022-12-05T02:41:15;100289.22;;;7.43;100.00
11515;BME280;5814;41.936;25.556;2022-12-05T02:43:48;100290.45;;;7.32;100.00
11515;BME280;5814;41.936;25.556;2022-12-05T02:46:15;100298.27;;;7.39;100.00
11515;BME280;5814;41.936;25.556;2022-12-05T02:48:40;100296.52;;;7.31;100.00
11515;BME280;5814;41.936;25.556;2022-12-05T02:51:07;100291.04;;;6.84;100.00
11515;BME280;5814;41.936;25.556;2022-12-05T02:53:35;100290.30;;;7.02;100.00
11515;BME280;5814;41.936;25.556;2022-12-05T02:56:02;100289.06;;;7.12;100.00
11515;BME280;5814;41.936;25.556;2022-12-05T02:58:31;100294.78;;;7.31;100.00
11515;BME280;5814;41.936;25.556;2022-12-05T03:00:57;100299.97;;;7.32;100.00
11515;BME280;5814;41.936;25.556;2022-12-05T03:03:24;100307.19;;;7.04;100.00
11515;BME280;5814;41.936;25.556;2022-12-05T03:06:02;100304.48;;;6.92;100.00
11515;BME280;5814;41.936;25.556;2022-12-05T03:08:39;100305.86;;;7.03;100.00
11515;BME280;5814;41.936;25.556;2022-12-05T03:11:05;100305.98;;;7.22;100.00
11515;BME280;5814;41.936;25.556;2022-12-05T03:13:37;100301.13;;;7.02;100.00
11515;BME280;5814;41.936;25.556;2022-12-05T03:16:02;100307.91;;;6.87;100.00
11515;BME280;5814;41.936;25.556;2022-12-05T03:18:29;100305.52;;;7.14;100.00
11515;BME280;5814;41.936;25.556;2022-12-05T03:21:03;100314.64;;;7.25;100.00
11515;BME280;5814;41.936;25.556;2022-12-05T03:23:32;100302.13;;;7.29;100.00
11515;BME280;5814;41.936;25.556;2022-12-05T03:26:03;100298.92;;;6.98;100.00
11515;BME280;5814;41.936;25.556;2022-12-05T03:28:35;100287.52;;;6.73;100.00
11515;BME280;5814;41.936;25.556;2022-12-05T03:31:01;100284.22;;;6.97;100.00
11515;BME280;5814;41.936;25.556;2022-12-05T03:33:28;100285.59;;;7.13;100.00
11515;BME280;5814;41.936;25.556;2022-12-05T03:36:13;100282.19;;;7.22;100.00
11515;BME280;5814;41.936;25.556;2022-12-05T03:38:41;100286.40;;;6.99;100.00
11515;BME280;5814;41.936;25.556;2022-12-05T03:41:19;100290.30;;;7.02;100.00
11515;BME280;5814;41.936;25.556;2022-12-05T03:43:54;100282.10;;;7.05;100.00
11515;BME280;5814;41.936;25.556;2022-12-05T03:46:28;100283.50;;;7.24;100.00
11515;BME280;5814;41.936;25.556;2022-12-05T03:48:58;100280.50;;;7.32;100.00
11515;BME280;5814;41.936;25.556;2022-12-05T03:51:27;100290.28;;;6.97;100.00
11515;BME280;5814;41.936;25.556;2022-12-05T03:53:55;100290.80;;;7.11;100.00
11515;BME280;5814;41.936;25.556;2022-12-05T03:56:22;100294.35;;;7.28;100.00
11515;BME280;5814;41.936;25.556;2022-12-05T03:58:50;100288.30;;;7.31;100.00
11515;BME280;5814;41.936;25.556;2022-12-05T04:01:15;100299.17;;;7.47;100.00
11515;BME280;5814;41.936;25.556;2022-12-05T04:03:43;100292.24;;;7.43;100.00
11515;BME280;5814;41.936;25.556;2022-12-05T04:06:16;100290.44;;;7.30;100.00
11515;BME280;5814;41.936;25.556;2022-12-05T04:08:43;100294.42;;;7.49;100.00
11515;BME280;5814;41.936;25.556;2022-12-05T04:11:12;100282.80;;;7.62;100.00
11515;BME280;5814;41.936;25.556;2022-12-05T04:13:38;100282.29;;;7.44;100.00
11515;BME280;5814;41.936;25.556;2022-12-05T04:16:08;100279.12;;;7.18;100.00
11515;BME280;5814;41.936;25.556;2022-12-05T04:18:41;100277.53;;;7.40;100.00
11515;BME280;5814;41.936;25.556;2022-12-05T04:21:06;100285.34;;;7.54;100.00
11515;BME280;5814;41.936;25.556;2022-12-05T04:23:39;100274.15;;;7.65;100.00
11515;BME280;5814;41.936;25.556;2022-12-05T04:26:12;100275.89;;;7.71;100.00
11515;BME280;5814;41.936;25.556;2022-12-05T04:28:38;100284.03;;;7.45;100.00
11515;BME280;5814;41.936;25.556;2022-12-05T04:31:11;100293.12;;;7.46;100.00
11515;BME280;5814;41.936;25.556;2022-12-05T04:33:42;100304.80;;;7.43;100.00
11515;BME280;5814;41.936;25.556;2022-12-05T04:36:14;100308.16;;;7.21;100.00
11515;BME280;5814;41.936;25.556;2022-12-05T04:38:43;100305.66;;;7.40;100.00
11515;BME280;5814;41.936;25.556;2022-12-05T04:41:10;100308.61;;;7.30;100.00
11515;BME280;5814;41.936;25.556;2022-12-05T04:43:38;100305.67;;;7.49;100.00
11515;BME280;5814;41.936;25.556;2022-12-05T04:46:04;100300.95;;;7.55;100.00
11515;BME280;5814;41.936;25.556;2022-12-05T04:48:30;100305.75;;;7.64;100.00
11515;BME280;5814;41.936;25.556;2022-12-05T04:50:58;100299.16;;;7.41;100.00
11515;BME280;5814;41.936;25.556;2022-12-05T04:53:27;100302.61;;;7.35;100.00
11515;BME280;5814;41.936;25.556;2022-12-05T04:55:53;100316.89;;;7.39;100.00
11515;BME280;5814;41.936;25.556;2022-12-05T04:58:20;100316.38;;;7.24;100.00
11515;BME280;5814;41.936;25.556;2022-12-05T05:00:50;100316.88;;;7.40;100.00
11515;BME280;5814;41.936;25.556;2022-12-05T05:03:23;100310.39;;;7.35;100.00
11515;BME280;5814;41.936;25.556;2022-12-05T05:05:48;100316.06;;;7.45;100.00
11515;BME280;5814;41.936;25.556;2022-12-05T05:08:18;100321.73;;;7.55;100.00
11515;BME280;5814;41.936;25.556;2022-12-05T05:10:49;100314.80;;;7.56;100.00
11515;BME280;5814;41.936;25.556;2022-12-05T05:13:11;100323.84;;;7.49;100.00
11515;BME280;5814;41.936;25.556;2022-12-05T05:15:38;100326.05;;;7.50;100.00
11515;BME280;5814;41.936;25.556;2022-12-05T05:18:05;100321.14;;;7.28;100.00
11515;BME280;5814;41.936;25.556;2022-12-05T05:20:33;100315.63;;;7.46;100.00
11515;BME280;5814;41.936;25.556;2022-12-05T05:23:00;100321.56;;;7.22;100.00
11515;BME280;5814;41.936;25.556;2022-12-05T05:25:27;100327.99;;;7.16;100.00
11515;BME280;5814;41.936;25.556;2022-12-05T05:27:54;100330.69;;;7.33;100.00
11515;BME280;5814;41.936;25.556;2022-12-05T05:30:22;100317.23;;;7.22;100.00
11515;BME280;5814;41.936;25.556;2022-12-05T05:32:49;100322.06;;;7.33;100.00
11515;BME280;5814;41.936;25.556;2022-12-05T05:35:16;100323.69;;;7.14;100.00
11515;BME280;5814;41.936;25.556;2022-12-05T05:37:43;100311.16;;;7.20;100.00
11515;BME280;5814;41.936;25.556;2022-12-05T05:40:11;100313.88;;;7.44;100.00
11515;BME280;5814;41.936;25.556;2022-12-05T05:42:43;100320.83;;;7.45;100.00
11515;BME280;5814;41.936;25.556;2022-12-05T05:45:10;100314.34;;;7.51;100.00
11515;BME280;5814;41.936;25.556;2022-12-05T05:47:37;100314.28;;;7.36;100.00
11515;BME280;5814;41.936;25.556;2022-12-05T05:50:05;100315.18;;;7.43;100.00
11515;BME280;5814;41.936;25.556;2022-12-05T05:52:33;100296.51;;;7.32;100.00
11515;BME280;5814;41.936;25.556;2022-12-05T05:55:00;100307.50;;;7.66;100.00
11515;BME280;5814;41.936;25.556;2022-12-05T05:57:27;100307.44;;;7.52;100.00
11515;BME280;5814;41.936;25.556;2022-12-05T05:59:54;100306.17;;;7.65;100.00
11515;BME280;5814;41.936;25.556;2022-12-05T06:02:22;100307.06;;;7.71;100.00
11515;BME280;5814;41.936;25.556;2022-12-05T06:04:49;100309.69;;;7.77;100.00
11515;BME280;5814;41.936;25.556;2022-12-05T06:07:16;100305.84;;;7.88;100.00
11515;BME280;5814;41.936;25.556;2022-12-05T06:09:43;100320.06;;;7.69;100.00
11515;BME280;5814;41.936;25.556;2022-12-05T06:12:10;100318.36;;;7.85;100.00
11515;BME280;5814;41.936;25.556;2022-12-05T06:14:37;100314.08;;;7.96;100.00
11515;BME280;5814;41.936;25.556;2022-12-05T06:17:05;100326.66;;;8.00;100.00
11515;BME280;5814;41.936;25.556;2022-12-05T06:19:32;100324.89;;;7.89;100.00
11515;BME280;5814;41.936;25.556;2022-12-05T06:21:59;100323.09;;;7.69;100.00
11515;BME280;5814;41.936;25.556;2022-12-05T06:24:26;100326.61;;;7.90;100.00
11515;BME280;5814;41.936;25.556;2022-12-05T06:26:53;100321.02;;;7.96;100.00
11515;BME280;5814;41.936;25.556;2022-12-05T06:29:21;100324.48;;;8.02;100.00
11515;BME280;5814;41.936;25.556;2022-12-05T06:31:48;100330.59;;;8.12;100.00
11515;BME280;5814;41.936;25.556;2022-12-05T06:34:15;100329.63;;;7.82;100.00
11515;BME280;5814;41.936;25.556;2022-12-05T06:36:42;100331.83;;;7.94;100.00
11515;BME280;5814;41.936;25.556;2022-12-05T06:39:09;100343.17;;;8.16;100.00
11515;BME280;5814;41.936;25.556;2022-12-05T06:41:36;100344.45;;;8.12;100.00
11515;BME280;5814;41.936;25.556;2022-12-05T06:44:03;100351.44;;;8.36;100.00
11515;BME280;5814;41.936;25.556;2022-12-05T06:46:31;100346.19;;;8.12;100.00
11515;BME280;5814;41.936;25.556;2022-12-05T06:48:58;100341.00;;;8.20;100.00
11515;BME280;5814;41.936;25.556;2022-12-05T06:51:26;100347.08;;;8.38;100.00
11515;BME280;5814;41.936;25.556;2022-12-05T06:53:54;100339.78;;;8.43;100.00
11515;BME280;5814;41.936;25.556;2022-12-05T06:56:20;100348.80;;;8.22;100.00
11515;BME280;5814;41.936;25.556;2022-12-05T06:58:48;100346.61;;;8.13;100.00
11515;BME280;5814;41.936;25.556;2022-12-05T07:01:15;100352.28;;;8.24;100.00
11515;BME280;5814;41.936;25.556;2022-12-05T07:03:47;100340.58;;;8.24;100.00
11515;BME280;5814;41.936;25.556;2022-12-05T07:06:15;100358.33;;;8.31;100.00
11515;BME280;5814;41.936;25.556;2022-12-05T07:08:42;100361.83;;;8.31;100.00
11515;BME280;5814;41.936;25.556;2022-12-05T07:11:09;100363.03;;;8.04;100.00
11515;BME280;5814;41.936;25.556;2022-12-05T07:13:36;100366.56;;;8.16;100.00
11515;BME280;5814;41.936;25.556;2022-12-05T07:16:04;100354.00;;;8.22;100.00
11515;BME280;5814;41.936;25.556;2022-12-05T07:18:32;100350.59;;;8.45;100.00
11515;BME280;5814;41.936;25.556;2022-12-05T07:21:00;100367.11;;;8.60;100.00
11515;BME280;5814;41.936;25.556;2022-12-05T07:23:26;100369.66;;;8.42;100.00
11515;BME280;5814;41.936;25.556;2022-12-05T07:25:53;100378.77;;;8.46;100.00
11515;BME280;5814;41.936;25.556;2022-12-05T07:28:20;100375.77;;;8.80;100.00
11515;BME280;5814;41.936;25.556;2022-12-05T07:30:47;100376.63;;;8.98;100.00
11515;BME280;5814;41.936;25.556;2022-12-05T07:33:14;100370.55;;;9.18;100.00
11515;BME280;5814;41.936;25.556;2022-12-05T07:35:42;100368.40;;;8.87;100.00
11515;BME280;5814;41.936;25.556;2022-12-05T07:38:09;100376.22;;;8.96;100.00
11515;BME280;5814;41.936;25.556;2022-12-05T07:40:37;100373.58;;;9.23;100.00
11515;BME280;5814;41.936;25.556;2022-12-05T07:43:04;100379.63;;;9.33;100.00
11515;BME280;5814;41.936;25.556;2022-12-05T07:45:32;100385.65;;;9.57;100.00
11515;BME280;5814;41.936;25.556;2022-12-05T07:47:58;100385.73;;;9.30;100.00
11515;BME280;5814;41.936;25.556;2022-12-05T07:50:26;100376.63;;;9.27;100.00
11515;BME280;5814;41.936;25.556;2022-12-05T07:52:53;100389.13;;;9.55;100.00
11515;BME280;5814;41.936;25.556;2022-12-05T07:55:20;100378.66;;;9.73;100.00
11515;BME280;5814;41.936;25.556;2022-12-05T07:57:47;100389.06;;;9.79;100.00
11515;BME280;5814;41.936;25.556;2022-12-05T08:00:15;100386.45;;;9.83;100.00
11515;BME280;5814;41.936;25.556;2022-12-05T08:02:43;100387.73;;;9.89;100.00
11515;BME280;5814;41.936;25.556;2022-12-05T08:05:10;100383.55;;;9.32;100.00
11515;BME280;5814;41.936;25.556;2022-12-05T08:07:38;100392.63;;;9.58;100.00
11515;BME280;5814;41.936;25.556;2022-12-05T08:10:06;100388.67;;;9.72;100.00
11515;BME280;5814;41.936;25.556;2022-12-05T08:12:33;100383.81;;;9.92;100.00
11515;BME280;5814;41.936;25.556;2022-12-05T08:15:01;100380.27;;;10.04;100.00
11515;BME280;5814;41.936;25.556;2022-12-05T08:17:28;100384.86;;;9.30;100.00
11515;BME280;5814;41.936;25.556;2022-12-05T08:19:55;100373.98;;;9.46;100.00
11515;BME280;5814;41.936;25.556;2022-12-05T08:22:22;100390.85;;;9.70;100.00
11515;BME280;5814;41.936;25.556;2022-12-05T08:24:49;100381.22;;;9.87;100.00
11515;BME280;5814;41.936;25.556;2022-12-05T08:27:16;100366.36;;;10.05;100.00
11515;BME280;5814;41.936;25.556;2022-12-05T08:29:44;100376.19;;;9.30;100.00
11515;BME280;5814;41.936;25.556;2022-12-05T08:32:11;100371.31;;;9.67;100.00
11515;BME280;5814;41.936;25.556;2022-12-05T08:34:38;100364.66;;;9.99;100.00
11515;BME280;5814;41.936;25.556;2022-12-05T08:37:05;100367.55;;;10.35;100.00
11515;BME280;5814;41.936;25.556;2022-12-05T08:39:32;100374.74;;;10.60;100.00
11515;BME280;5814;41.936;25.556;2022-12-05T08:41:59;100355.14;;;9.92;100.00
11515;BME280;5814;41.936;25.556;2022-12-05T08:44:27;100372.52;;;9.88;100.00
11515;BME280;5814;41.936;25.556;2022-12-05T08:46:54;100364.58;;;10.16;100.00
11515;BME280;5814;41.936;25.556;2022-12-05T08:49:21;100368.48;;;10.16;100.00
11515;BME280;5814;41.936;25.556;2022-12-05T08:51:48;100369.83;;;10.07;100.00
11515;BME280;5814;41.936;25.556;2022-12-05T08:54:15;112497.60;;;-145.99;100.00
11515;BME280;5814;41.936;25.556;2022-12-05T08:56:43;112497.60;;;-145.99;100.00
11515;BME280;5814;41.936;25.556;2022-12-05T08:59:10;112497.60;;;-145.99;100.00
11515;BME280;5814;41.936;25.556;2022-12-05T09:01:37;112497.60;;;-145.99;100.00
11515;BME280;5814;41.936;25.556;2022-12-05T09:04:04;112497.60;;;-145.99;100.00
11515;BME280;5814;41.936;25.556;2022-12-05T09:06:32;112497.60;;;-145.99;100.00
11515;BME280;5814;41.936;25.556;2022-12-05T09:08:59;112497.60;;;-145.99;100.00
11515;BME280;5814;41.936;25.556;2022-12-05T09:11:26;112497.60;;;-145.99;100.00
11515;BME280;5814;41.936;25.556;2022-12-05T09:13:53;112497.60;;;-145.99;100.00
11515;BME280;5814;41.936;25.556;2022-12-05T09:16:21;112497.60;;;-145.99;100.00
11515;BME280;5814;41.936;25.556;2022-12-05T09:18:48;112497.60;;;-145.99;100.00
11515;BME280;5814;41.936;25.556;2022-12-05T09:21:16;112497.60;;;-145.99;100.00
11515;BME280;5814;41.936;25.556;2022-12-05T09:23:42;112497.60;;;-145.99;100.00
11515;BME280;5814;41.936;25.556;2022-12-05T09:26:10;112497.60;;;-145.99;100.00
11515;BME280;5814;41.936;25.556;2022-12-05T09:28:36;112497.60;;;-145.99;100.00
11515;BME280;5814;41.936;25.556;2022-12-05T09:31:05;112497.60;;;-145.99;100.00
11515;BME280;5814;41.936;25.556;2022-12-05T09:33:32;112497.60;;;-145.99;100.00
11515;BME280;5814;41.936;25.556;2022-12-05T09:36:00;112497.60;;;-145.99;100.00
11515;BME280;5814;41.936;25.556;2022-12-05T09:38:25;112497.60;;;-145.99;100.00
11515;BME280;5814;41.936;25.556;2022-12-05T09:40:59;112497.60;;;-145.99;100.00
11515;BME280;5814;41.936;25.556;2022-12-05T09:43:25;112497.60;;;-145.99;100.00
11515;BME280;5814;41.936;25.556;2022-12-05T09:46:04;112497.60;;;-145.99;100.00
11515;BME280;5814;41.936;25.556;2022-12-05T09:48:29;112497.60;;;-145.99;100.00
11515;BME280;5814;41.936;25.556;2022-12-05T09:50:58;112497.60;;;-145.99;100.00
11515;BME280;5814;41.936;25.556;2022-12-05T09:53:27;112497.60;;;-145.99;100.00
11515;BME280;5814;41.936;25.556;2022-12-05T09:56:24;112497.60;;;-145.99;100.00
11515;BME280;5814;41.936;25.556;2022-12-05T09:58:51;112497.60;;;-145.99;100.00
11515;BME280;5814;41.936;25.556;2022-12-05T10:01:37;112497.60;;;-145.99;100.00
11515;BME280;5814;41.936;25.556;2022-12-05T10:06:49;112497.60;;;-145.99;100.00
11515;BME280;5814;41.936;25.556;2022-12-05T10:09:27;112497.60;;;-145.99;100.00
11515;BME280;5814;41.936;25.556;2022-12-05T10:11:57;112497.60;;;-145.99;100.00
11515;BME280;5814;41.936;25.556;2022-12-05T10:14:34;112497.60;;;-145.99;100.00
11515;BME280;5814;41.936;25.556;2022-12-05T10:17:00;112497.60;;;-145.99;100.00
11515;BME280;5814;41.936;25.556;2022-12-05T10:19:29;112497.60;;;-145.99;100.00
11515;BME280;5814;41.936;25.556;2022-12-05T10:22:03;112497.60;;;-145.99;100.00
11515;BME280;5814;41.936;25.556;2022-12-05T10:24:31;112497.60;;;-145.99;100.00
11515;BME280;5814;41.936;25.556;2022-12-05T10:26:58;112497.60;;;-145.99;100.00
11515;BME280;5814;41.936;25.556;2022-12-05T10:29:30;112497.60;;;-145.99;100.00
11515;BME280;5814;41.936;25.556;2022-12-05T10:32:05;112497.60;;;-145.99;100.00
11515;BME280;5814;41.936;25.556;2022-12-05T10:34:38;112497.60;;;-145.99;100.00
11515;BME280;5814;41.936;25.556;2022-12-05T10:37:08;112497.60;;;-145.99;100.00
11515;BME280;5814;41.936;25.556;2022-12-05T10:39:33;112497.60;;;-145.99;100.00
11515;BME280;5814;41.936;25.556;2022-12-05T10:42:00;112497.60;;;-145.99;100.00
11515;BME280;5814;41.936;25.556;2022-12-05T10:44:28;112497.60;;;-145.99;100.00
11515;BME280;5814;41.936;25.556;2022-12-05T10:46:55;112497.60;;;-145.99;100.00
11515;BME280;5814;41.936;25.556;2022-12-05T10:49:22;112497.60;;;-145.99;100.00
11515;BME280;5814;41.936;25.556;2022-12-05T10:51:49;112497.60;;;-145.99;100.00
11515;BME280;5814;41.936;25.556;2022-12-05T10:54:18;112497.60;;;-145.99;100.00
11515;BME280;5814;41.936;25.556;2022-12-05T10:56:45;112497.60;;;-145.99;100.00
11515;BME280;5814;41.936;25.556;2022-12-05T10:59:13;112497.60;;;-145.99;100.00
11515;BME280;5814;41.936;25.556;2022-12-05T11:01:42;112497.60;;;-145.99;100.00
11515;BME280;5814;41.936;25.556;2022-12-05T11:04:17;112497.60;;;-145.99;100.00
11515;BME280;5814;41.936;25.556;2022-12-05T11:06:36;112497.60;;;-145.99;100.00
11515;BME280;5814;41.936;25.556;2022-12-05T11:09:12;112497.60;;;-145.99;100.00
11515;BME280;5814;41.936;25.556;2022-12-05T11:11:32;112497.60;;;-145.99;100.00
11515;BME280;5814;41.936;25.556;2022-12-05T11:14:01;112497.60;;;-145.99;100.00
11515;BME280;5814;41.936;25.556;2022-12-05T11:16:31;112497.60;;;-145.99;100.00
11515;BME280;5814;41.936;25.556;2022-12-05T11:19:15;112497.60;;;-145.99;100.00
11515;BME280;5814;41.936;25.556;2022-12-05T11:21:24;112497.60;;;-145.99;100.00
11515;BME280;5814;41.936;25.556;2022-12-05T11:23:51;112497.60;;;-145.99;100.00
11515;BME280;5814;41.936;25.556;2022-12-05T11:26:34;112497.60;;;-145.99;100.00
11515;BME280;5814;41.936;25.556;2022-12-05T11:29:01;112497.60;;;-145.99;100.00
11515;BME280;5814;41.936;25.556;2022-12-05T11:31:29;112497.60;;;-145.99;100.00
11515;BME280;5814;41.936;25.556;2022-12-05T11:34:15;112497.60;;;-145.99;100.00
11515;BME280;5814;41.936;25.556;2022-12-05T11:36:44;112497.60;;;-145.99;100.00
11515;BME280;5814;41.936;25.556;2022-12-05T11:39:11;112497.60;;;-145.99;100.00
11515;BME280;5814;41.936;25.556;2022-12-05T11:41:47;112497.60;;;-145.99;100.00
11515;BME280;5814;41.936;25.556;2022-12-05T11:47:13;112497.60;;;-145.99;100.00
11515;BME280;5814;41.936;25.556;2022-12-05T11:49:57;112497.60;;;-145.99;100.00
11515;BME280;5814;41.936;25.556;2022-12-05T11:52:24;112497.60;;;-145.99;100.00
11515;BME280;5814;41.936;25.556;2022-12-05T11:58:01;112497.60;;;-145.99;100.00
11515;BME280;5814;41.936;25.556;2022-12-05T12:03:22;112497.60;;;-145.99;100.00
11515;BME280;5814;41.936;25.556;2022-12-05T12:05:59;112497.60;;;-145.99;100.00
11515;BME280;5814;41.936;25.556;2022-12-05T12:09:11;112497.60;;;-145.99;100.00
11515;BME280;5814;41.936;25.556;2022-12-05T12:11:30;112497.60;;;-145.99;100.00
11515;BME280;5814;41.936;25.556;2022-12-05T12:14:13;112497.60;;;-145.99;100.00
11515;BME280;5814;41.936;25.556;2022-12-05T12:17:05;112497.60;;;-145.99;100.00
11515;BME280;5814;41.936;25.556;2022-12-05T12:19:42;112497.60;;;-145.99;100.00
11515;BME280;5814;41.936;25.556;2022-12-05T12:22:36;112497.60;;;-145.99;100.00
11515;BME280;5814;41.936;25.556;2022-12-05T12:25:02;112497.60;;;-145.99;100.00
11515;BME280;5814;41.936;25.556;2022-12-05T12:27:36;112497.60;;;-145.99;100.00
11515;BME280;5814;41.936;25.556;2022-12-05T12:30:04;112497.60;;;-145.99;100.00
11515;BME280;5814;41.936;25.556;2022-12-05T12:32:51;112497.60;;;-145.99;100.00
11515;BME280;5814;41.936;25.556;2022-12-05T12:35:26;112497.60;;;-145.99;100.00
11515;BME280;5814;41.936;25.556;2022-12-05T12:37:59;112497.60;;;-145.99;100.00
11515;BME280;5814;41.936;25.556;2022-12-05T12:40:55;112497.60;;;-145.99;100.00
11515;BME280;5814;41.936;25.556;2022-12-05T12:43:48;112497.60;;;-145.99;100.00
11515;BME280;5814;41.936;25.556;2022-12-05T12:49:02;112497.60;;;-145.99;100.00
11515;BME280;5814;41.936;25.556;2022-12-05T12:51:25;112497.60;;;-145.99;100.00
11515;BME280;5814;41.936;25.556;2022-12-05T12:54:02;112497.60;;;-145.99;100.00
11515;BME280;5814;41.936;25.556;2022-12-05T12:56:36;112497.60;;;-145.99;100.00
11515;BME280;5814;41.936;25.556;2022-12-05T12:59:15;112497.60;;;-145.99;100.00
11515;BME280;5814;41.936;25.556;2022-12-05T13:01:50;112497.60;;;-145.99;100.00
11515;BME280;5814;41.936;25.556;2022-12-05T13:04:23;112497.60;;;-145.99;100.00
11515;BME280;5814;41.936;25.556;2022-12-05T13:06:55;112497.60;;;-145.99;100.00
11515;BME280;5814;41.936;25.556;2022-12-05T13:09:29;112497.60;;;-145.99;100.00